Time;durP1;ratioP1;P1;durP2;ratioP2;P2;SDS_P1;SDS_P2;PMS_P1;PMS_P2;Temp;Humidity;BMP_temperature;BMP_pressure;BME280_temperature;BME280_humidity;BME280_pressure;Samples;Min_cycle;Max_cycle;Signal;HPM_P1;HPM_P2
2021/03/02 00:04:31;;;;;;;6.22;4.65;;;;;;;;;;4975146;28;20023;-58
2021/03/02 00:07:08;;;;;;;6.93;4.65;;;;;;;;;;5027501;28;20062;-58
2021/03/02 00:09:34;;;;;;;7.88;4.70;;;;;;;;;;4979551;28;20025;-58
2021/03/02 00:12:29;;;;;;;8.10;5.43;;;;;;;;;;5036705;28;20371;-56
2021/03/02 00:15:21;;;;;;;10.02;5.45;;;;;;;;;;5036283;28;20489;-58
2021/03/02 00:18:02;;;;;;;8.55;5.53;;;;;;;;;;5036783;28;20076;-58
2021/03/02 00:21:06;;;;;;;;;;;;;;;;;;;;;
2021/03/02 00:23:55;;;;;;;;;;;;;;;;;;;;;
2021/03/02 00:26:39;;;;;;;6.70;4.85;;;;;;;;;;5033298;28;20120;-58
2021/03/02 00:29:09;;;;;;;8.63;5.75;;;;;;;;;;5036575;28;20451;-57
2021/03/02 00:31:43;;;;;;;7.05;5.82;;;;;;;;;;5018302;28;20543;-58
2021/03/02 00:34:36;;;;;;;10.05;5.90;;;;;;;;;;5035888;28;20025;-58
2021/03/02 00:37:26;;;;;;;9.63;6.10;;;;;;;;;;5036747;28;20092;-58
2021/03/02 00:39:59;;;;;;;9.75;6.22;;;;;;;;;;5034073;28;20478;-57
2021/03/02 00:42:47;;;;;;;10.88;6.95;;;;;;;;;;5017007;28;20068;-58
2021/03/02 00:45:39;;;;;;;10.48;5.68;;;;;;;;;;5035124;28;20120;-58
2021/03/02 00:48:45;;;;;;;9.63;5.65;;;;;;;;;;5018245;28;20029;-58
2021/03/02 00:51:32;;;;;;;6.32;5.03;;;;;;;;;;5034993;28;20033;-57
2021/03/02 00:54:11;;;;;;;8.68;5.38;;;;;;;;;;5017675;28;20044;-58
2021/03/02 00:56:45;;;;;;;6.55;5.53;;;;;;;;;;5036364;28;20463;-58
2021/03/02 00:59:18;;;;;;;7.43;5.45;;;;;;;;;;5036037;28;20025;-58
2021/03/02 01:01:51;;;;;;;5.53;4.32;;;;;;;;;;5035144;28;20026;-58
2021/03/02 01:04:43;;;;;;;;;;;;;;;;;;;;;
2021/03/02 01:07:21;;;;;;;8.15;6.20;;;;;;;;;;5035255;28;20375;-57
2021/03/02 01:09:53;;;;;;;8.32;5.78;;;;;;;;;;5018268;28;20033;-57
2021/03/02 01:12:34;;;;;;;9.82;6.00;;;;;;;;;;5034945;28;20057;-58
2021/03/02 01:15:18;;;;;;;;;;;;;;;;;;;;;
2021/03/02 01:17:57;;;;;;;11.80;6.28;;;;;;;;;;5030553;28;20033;-57
2021/03/02 01:20:31;;;;;;;11.00;6.53;;;;;;;;;;5035109;28;20455;-58
2021/03/02 01:23:05;;;;;;;8.52;5.60;;;;;;;;;;5035545;28;20021;-58
2021/03/02 01:25:34;;;;;;;6.95;6.18;;;;;;;;;;5017048;28;20026;-58
2021/03/02 01:28:15;;;;;;;10.50;6.93;;;;;;;;;;5034237;28;20022;-58
2021/03/02 01:31:01;;;;;;;8.20;6.32;;;;;;;;;;5035234;28;20072;-57
2021/03/02 01:33:34;;;;;;;7.93;5.75;;;;;;;;;;5034127;28;20033;-58
2021/03/02 01:36:08;;;;;;;9.43;6.10;;;;;;;;;;5034396;28;20056;-57
2021/03/02 01:38:56;;;;;;;;;;;;;;;;;;;;;
2021/03/02 01:41:39;;;;;;;6.97;5.13;;;;;;;;;;5031281;28;20105;-58
2021/03/02 01:44:22;;;;;;;7.63;5.77;;;;;;;;;;5035393;28;20034;-58
2021/03/02 01:47:06;;;;;;;8.13;6.07;;;;;;;;;;5018996;28;20092;-58
2021/03/02 01:52:44;;;;;;;6.93;5.28;;;;;;;;;;5031428;28;20063;-58
2021/03/02 01:55:36;;;;;;;12.25;6.95;;;;;;;;;;5019398;28;20030;-58
2021/03/02 01:58:36;;;;;;;8.18;6.22;;;;;;;;;;5034432;28;20025;-58
2021/03/02 02:01:09;;;;;;;6.88;5.25;;;;;;;;;;5034409;28;20041;-57
2021/03/02 02:04:02;;;;;;;10.60;6.30;;;;;;;;;;5034698;28;20053;-58
2021/03/02 02:09:54;;;;;;;8.85;6.25;;;;;;;;;;5025892;28;20116;-58
2021/03/02 02:12:33;;;;;;;10.80;6.07;;;;;;;;;;5034438;28;20104;-56
2021/03/02 02:15:22;;;;;;;10.90;6.10;;;;;;;;;;5034274;28;20026;-57
2021/03/02 02:17:52;;;;;;;8.27;5.68;;;;;;;;;;5016190;28;20044;-58
2021/03/02 02:21:02;;;;;;;6.57;5.43;;;;;;;;;;5034679;28;20468;-58
2021/03/02 02:23:55;;;;;;;6.57;5.20;;;;;;;;;;5030826;28;20072;-58
2021/03/02 02:26:38;;;;;;;11.73;6.07;;;;;;;;;;5034679;28;20494;-57
2021/03/02 02:29:18;;;;;;;8.13;5.10;;;;;;;;;;5033448;28;20088;-57
2021/03/02 02:32:12;;;;;;;7.80;6.18;;;;;;;;;;5034657;28;20417;-58
2021/03/02 02:41:08;;;;;;;9.45;6.20;;;;;;;;;;5025668;28;20067;-57
2021/03/02 02:43:58;;;;;;;11.38;6.10;;;;;;;;;;5034261;28;20034;-58
2021/03/02 02:46:40;;;;;;;9.50;6.60;;;;;;;;;;5021768;28;20130;-58
2021/03/02 02:49:06;;;;;;;9.32;5.80;;;;;;;;;;4983489;28;20533;-57
2021/03/02 02:51:45;;;;;;;7.78;5.45;;;;;;;;;;5001060;28;20050;-58
2021/03/02 02:54:15;;;;;;;7.80;6.07;;;;;;;;;;5034406;28;20028;-58
2021/03/02 02:57:07;;;;;;;9.73;6.28;;;;;;;;;;5034008;28;20029;-57
2021/03/02 02:59:57;;;;;;;6.45;5.22;;;;;;;;;;5034649;28;20450;-57
2021/03/02 03:02:46;;;;;;;;;;;;;;;;;;;;;
2021/03/02 03:05:47;;;;;;;8.13;5.50;;;;;;;;;;5019070;28;20017;-58
2021/03/02 03:08:42;;;;;;;8.27;5.47;;;;;;;;;;5033667;28;20021;-58
2021/03/02 03:11:31;;;;;;;12.50;6.93;;;;;;;;;;5010646;28;20036;-57
2021/03/02 03:14:11;;;;;;;;;;;;;;;;;;;;;
2021/03/02 03:17:20;;;;;;;10.27;6.77;;;;;;;;;;4973793;28;20026;-58
2021/03/02 03:20:13;;;;;;;13.07;7.33;;;;;;;;;;4956784;28;20034;-58
2021/03/02 03:22:44;;;;;;;8.17;6.40;;;;;;;;;;4973296;28;20035;-58
2021/03/02 03:25:30;;;;;;;8.93;6.57;;;;;;;;;;4973767;28;20114;-58
2021/03/02 03:28:02;;;;;;;11.47;7.83;;;;;;;;;;4972977;28;20094;-56
2021/03/02 03:30:36;;;;;;;8.97;6.17;;;;;;;;;;4972564;28;20043;-57
2021/03/02 03:33:13;;;;;;;9.00;6.80;;;;;;;;;;4973474;28;20049;-58
2021/03/02 03:36:04;;;;;;;6.97;6.07;;;;;;;;;;4956517;28;20445;-56
2021/03/02 03:38:32;;;;;;;8.67;6.77;;;;;;;;;;4973208;28;20105;-57
2021/03/02 03:40:58;;;;;;;11.60;7.60;;;;;;;;;;4973155;28;20134;-58
2021/03/02 03:43:33;;;;;;;11.80;8.03;;;;;;;;;;4973549;28;20030;-57
2021/03/02 03:46:09;;;;;;;9.73;7.20;;;;;;;;;;5033294;28;20125;-57
2021/03/02 03:49:11;;;;;;;11.30;7.53;;;;;;;;;;5017892;28;20060;-58
2021/03/02 03:51:43;;;;;;;9.97;7.63;;;;;;;;;;5020939;28;20476;-57
2021/03/02 03:54:23;;;;;;;8.60;6.63;;;;;;;;;;5037545;28;20033;-57
2021/03/02 03:57:24;;;;;;;13.03;8.40;;;;;;;;;;5018872;28;20088;-55
2021/03/02 03:59:58;;;;;;;11.50;9.23;;;;;;;;;;5033490;28;20479;-58
2021/03/02 04:08:59;;;;;;;12.17;7.40;;;;;;;;;;5038010;28;20102;-57
2021/03/02 04:11:29;;;;;;;11.60;7.87;;;;;;;;;;5037388;28;20021;-57
2021/03/02 04:14:02;;;;;;;9.10;7.53;;;;;;;;;;5019711;28;20033;-57
2021/03/02 04:16:34;;;;;;;8.10;6.63;;;;;;;;;;5037315;28;20061;-56
2021/03/02 04:19:39;;;;;;;12.57;8.70;;;;;;;;;;5036937;28;20057;-57
2021/03/02 04:22:14;;;;;;;14.50;8.13;;;;;;;;;;5023253;28;20041;-57
2021/03/02 04:25:02;;;;;;;13.13;6.80;;;;;;;;;;5037799;28;20026;-56
2021/03/02 04:28:06;;;;;;;9.63;6.60;;;;;;;;;;5037637;28;20460;-58
2021/03/02 04:30:52;;;;;;;9.80;7.27;;;;;;;;;;5031826;28;20108;-58
2021/03/02 04:33:31;;;;;;;15.00;7.87;;;;;;;;;;5036284;28;20490;-58
2021/03/02 04:36:12;;;;;;;12.47;6.93;;;;;;;;;;5019826;28;20049;-57
2021/03/02 04:38:43;;;;;;;12.60;8.00;;;;;;;;;;5036098;28;20048;-58
2021/03/02 04:44:18;;;;;;;8.63;6.57;;;;;;;;;;5035195;28;20048;-58
2021/03/02 04:46:51;;;;;;;13.80;8.70;;;;;;;;;;4998393;28;20546;-54
2021/03/02 04:49:43;;;;;;;10.23;7.70;;;;;;;;;;5036273;28;20041;-57
2021/03/02 04:52:16;;;;;;;9.47;8.17;;;;;;;;;;4980945;28;20030;-57
2021/03/02 04:55:12;;;;;;;11.63;9.07;;;;;;;;;;5013145;28;20606;-56
2021/03/02 04:57:56;;;;;;;10.40;7.63;;;;;;;;;;5013973;28;20109;-57
2021/03/02 05:01:02;;;;;;;11.60;7.60;;;;;;;;;;4996559;28;20546;-55
2021/03/02 05:03:43;;;;;;;15.83;6.97;;;;;;;;;;4983814;28;20050;-57
2021/03/02 05:06:27;;;;;;;10.33;7.77;;;;;;;;;;4966146;28;20097;-57
2021/03/02 05:09:06;;;;;;;;;;;;;;;;;;;;;
2021/03/02 05:14:40;;;;;;;10.77;8.30;;;;;;;;;;5013329;28;20033;-56
2021/03/02 05:17:17;;;;;;;13.60;8.00;;;;;;;;;;5013677;28;20081;-57
2021/03/02 05:20:03;;;;;;;10.97;7.83;;;;;;;;;;4968660;28;20523;-56
2021/03/02 05:22:59;;;;;;;9.00;7.03;;;;;;;;;;4990207;28;20034;-57
2021/03/02 05:25:34;;;;;;;13.33;8.00;;;;;;;;;;5004456;28;20045;-58
2021/03/02 05:28:07;;;;;;;10.57;7.17;;;;;;;;;;5035288;28;20033;-56
2021/03/02 05:30:49;;;;;;;;;;;;;;;;;;;;;
2021/03/02 05:33:21;;;;;;;11.70;8.40;;;;;;;;;;5020790;28;20093;-55
2021/03/02 05:35:54;;;;;;;8.83;7.47;;;;;;;;;;5036275;28;20053;-58
2021/03/02 05:38:36;;;;;;;11.13;7.97;;;;;;;;;;5036546;28;20457;-58
2021/03/02 05:41:18;;;;;;;9.57;6.30;;;;;;;;;;5036958;28;20473;-58
2021/03/02 05:44:01;;;;;;;14.00;8.43;;;;;;;;;;5037722;28;20075;-57
2021/03/02 05:46:40;;;;;;;10.70;7.07;;;;;;;;;;5037071;28;20022;-56
2021/03/02 05:52:18;;;;;;;9.50;7.10;;;;;;;;;;5022261;28;20048;-56
2021/03/02 05:55:14;;;;;;;9.63;6.87;;;;;;;;;;5036934;28;20022;-57
2021/03/02 05:58:17;;;;;;;8.63;6.93;;;;;;;;;;5035406;28;20048;-55
2021/03/02 06:00:47;;;;;;;11.43;7.47;;;;;;;;;;5006681;28;20048;-57
2021/03/02 06:03:40;;;;;;;10.10;7.93;;;;;;;;;;5037360;28;20108;-56
2021/03/02 06:06:24;;;;;;;10.83;8.07;;;;;;;;;;5037115;28;20035;-56
2021/03/02 06:09:00;;;;;;;10.63;7.33;;;;;;;;;;5036943;28;20084;-58
2021/03/02 06:11:39;;;;;;;15.90;9.07;;;;;;;;;;5036492;28;20025;-57
2021/03/02 06:14:38;;;;;;;;;;;;;;;;;;;;;
2021/03/02 06:17:26;;;;;;;13.43;9.33;;;;;;;;;;5033664;28;20369;-56
2021/03/02 06:20:25;;;;;;;15.77;7.63;;;;;;;;;;5018792;28;20034;-57
2021/03/02 06:23:24;;;;;;;10.50;7.20;;;;;;;;;;5036174;28;20386;-55
2021/03/02 06:26:24;;;;;;;9.10;8.03;;;;;;;;;;5030199;28;20115;-58
2021/03/02 06:29:21;;;;;;;10.67;8.03;;;;;;;;;;5018227;28;20033;-58
2021/03/02 06:32:10;;;;;;;13.53;8.63;;;;;;;;;;5036573;28;20029;-56
2021/03/02 06:35:06;;;;;;;13.57;8.33;;;;;;;;;;5024633;28;20100;-57
2021/03/02 06:37:51;;;;;;;13.20;9.10;;;;;;;;;;5037079;28;20049;-58
2021/03/02 06:40:39;;;;;;;12.17;9.00;;;;;;;;;;5018150;28;20030;-58
2021/03/02 06:43:12;;;;;;;9.57;7.90;;;;;;;;;;5036695;28;20040;-57
2021/03/02 06:45:52;;;;;;;20.03;9.33;;;;;;;;;;5035121;28;20030;-55
2021/03/02 06:51:43;;;;;;;14.03;9.33;;;;;;;;;;5036505;28;20046;-58
2021/03/02 06:54:29;;;;;;;13.93;8.20;;;;;;;;;;4986645;28;20030;-56
2021/03/02 06:57:07;;;;;;;14.20;9.57;;;;;;;;;;5035409;28;20479;-58
2021/03/02 07:02:44;;;;;;;13.43;9.07;;;;;;;;;;5034535;28;20067;-56
2021/03/02 07:08:32;;;;;;;10.63;8.00;;;;;;;;;;5021424;28;20475;-57
2021/03/02 07:11:17;;;;;;;11.17;9.20;;;;;;;;;;5035755;28;20033;-59
2021/03/02 07:14:02;;;;;;;11.40;8.20;;;;;;;;;;5035392;28;20043;-58
2021/03/02 07:16:44;;;;;;;13.23;8.53;;;;;;;;;;5017648;28;20037;-58
2021/03/02 07:19:31;;;;;;;11.87;8.90;;;;;;;;;;5034719;28;20029;-58
2021/03/02 07:25:16;;;;;;;13.50;10.20;;;;;;;;;;5037421;28;20038;-58
2021/03/02 07:27:48;;;;;;;13.33;8.57;;;;;;;;;;5038969;28;20041;-58
2021/03/02 07:30:17;;;;;;;13.30;8.90;;;;;;;;;;5020315;28;20033;-58
2021/03/02 07:32:50;;;;;;;12.97;8.43;;;;;;;;;;4996117;28;20146;-58
2021/03/02 07:35:30;;;;;;;10.87;8.77;;;;;;;;;;4994627;28;20085;-56
2021/03/02 07:38:27;;;;;;;15.40;9.43;;;;;;;;;;4960508;28;20567;-57
2021/03/02 07:44:08;;;;;;;14.60;9.77;;;;;;;;;;4971673;28;20417;-58
2021/03/02 07:46:42;;;;;;;16.70;8.93;;;;;;;;;;4962305;28;20481;-58
2021/03/02 07:49:37;;;;;;;14.40;8.17;;;;;;;;;;4977472;28;20121;-58
2021/03/02 07:55:12;;;;;;;16.25;9.50;;;;;;;;;;4970741;28;20493;-57
2021/03/02 07:58:14;;;;;;;14.40;10.30;;;;;;;;;;5003184;28;20380;-58
2021/03/02 08:00:55;;;;;;;12.00;9.45;;;;;;;;;;4973982;28;20053;-58
2021/03/02 08:03:37;;;;;;;;;;;;;;;;;;5000697;28;20033;-59
2021/03/02 08:06:28;;;;;;;11.10;7.37;;;;;;;;;;5016959;28;19905;-58
2021/03/02 08:09:07;;;;;;;;;;;;;;;;;;;;;
2021/03/02 08:11:50;;;;;;;12.03;8.23;;;;;;;;;;5016617;28;20117;-58
2021/03/02 08:14:19;;;;;;;13.30;8.48;;;;;;;;;;4984536;28;20018;-58
2021/03/02 08:17:18;;;;;;;16.55;9.52;;;;;;;;;;4998795;28;20060;-58
2021/03/02 08:19:54;;;;;;;13.75;9.38;;;;;;;;;;5014926;28;20490;-58
2021/03/02 08:22:23;;;;;;;12.93;8.02;;;;;;;;;;4998677;28;20038;-58
2021/03/02 08:25:23;;;;;;;10.35;9.13;;;;;;;;;;4999182;28;20034;-57
2021/03/02 08:28:04;;;;;;;11.65;8.20;;;;;;;;;;5016761;28;20480;-58
2021/03/02 08:30:44;;;;;;;21.27;9.32;;;;;;;;;;4999460;28;20036;-57
2021/03/02 08:33:26;;;;;;;13.80;10.83;;;;;;;;;;4981943;28;20037;-58
2021/03/02 08:36:22;;;;;;;16.63;9.30;;;;;;;;;;5003073;28;20521;-57
2021/03/02 08:39:05;;;;;;;;;;;;;;;;;;;;;
2021/03/02 08:45:05;;;;;;;10.80;8.00;;;;;;;;;;5021911;28;20034;-58
2021/03/02 08:47:37;;;;;;;;;;;;;;;;;;5018077;28;20593;-58
2021/03/02 08:50:25;;;;;;;12.75;10.02;;;;;;;;;;5036224;28;19905;-58
2021/03/02 08:53:01;;;;;;;14.30;8.85;;;;;;;;;;5018386;28;20486;-58
2021/03/02 08:56:07;;;;;;;;;;;;;;;;;;;;;
2021/03/02 08:58:50;;;;;;;12.25;8.02;;;;;;;;;;5035249;28;20055;-57
2021/03/02 09:01:25;;;;;;;13.88;9.65;;;;;;;;;;5017104;28;20444;-59
2021/03/02 09:04:10;;;;;;;12.88;9.77;;;;;;;;;;5036028;28;20379;-58
2021/03/02 09:07:01;;;;;;;23.50;9.52;;;;;;;;;;5017273;28;20077;-58
2021/03/02 09:09:31;;;;;;;12.95;9.90;;;;;;;;;;5018048;28;20113;-57
2021/03/02 09:12:05;;;;;;;11.85;8.60;;;;;;;;;;5035664;28;20026;-59
2021/03/02 09:15:11;;;;;;;13.43;9.25;;;;;;;;;;5035258;28;20124;-58
2021/03/02 09:18:01;;;;;;;12.65;8.82;;;;;;;;;;5035496;28;20028;-57
2021/03/02 09:23:31;;;;;;;17.50;9.10;;;;;;;;;;5020101;28;20477;-59
2021/03/02 09:26:17;;;;;;;14.45;9.75;;;;;;;;;;5034858;28;20045;-58
2021/03/02 09:31:51;;;;;;;10.07;8.70;;;;;;;;;;5034895;28;20056;-57
2021/03/02 09:34:43;;;;;;;14.27;10.00;;;;;;;;;;5017291;28;20038;-59
2021/03/02 09:37:37;;;;;;;;;;;;;;;;;;;;;
2021/03/02 09:43:41;;;;;;;13.70;9.60;;;;;;;;;;5021021;28;20040;-59
2021/03/02 09:46:13;;;;;;;13.30;9.50;;;;;;;;;;5034906;28;20494;-59
2021/03/02 09:49:02;;;;;;;10.27;7.97;;;;;;;;;;5015830;28;20037;-58
2021/03/02 09:51:32;;;;;;;13.20;9.07;;;;;;;;;;4988885;28;20135;-58
2021/03/02 09:54:20;;;;;;;12.25;9.45;;;;;;;;;;5034179;28;20148;-58
2021/03/02 09:57:07;;;;;;;13.13;9.63;;;;;;;;;;5034371;28;20610;-58
2021/03/02 09:59:43;;;;;;;10.85;8.95;;;;;;;;;;5034612;28;20112;-58
2021/03/02 10:02:15;;;;;;;11.05;8.00;;;;;;;;;;5016767;28;20030;-58
2021/03/02 10:04:45;;;;;;;14.52;9.95;;;;;;;;;;5034859;28;20033;-59
2021/03/02 10:07:14;;;;;;;12.65;9.70;;;;;;;;;;5034207;28;20030;-59
2021/03/02 10:10:04;;;;;;;9.88;8.68;;;;;;;;;;5017091;28;20379;-58
2021/03/02 10:12:37;;;;;;;11.30;9.05;;;;;;;;;;5022649;28;20488;-57
2021/03/02 10:15:07;;;;;;;10.80;8.65;;;;;;;;;;5028845;28;20026;-59
2021/03/02 10:17:55;;;;;;;;;;;;;;;;;;;;;
2021/03/02 10:20:34;;;;;;;12.00;9.35;;;;;;;;;;5032099;28;20390;-59
2021/03/02 10:23:26;;;;;;;11.60;9.70;;;;;;;;;;5034416;28;20033;-59
2021/03/02 10:26:01;;;;;;;12.43;8.35;;;;;;;;;;5034227;28;20467;-57
2021/03/02 10:28:42;;;;;;;10.63;9.52;;;;;;;;;;5015535;28;20041;-59
2021/03/02 10:31:24;;;;;;;12.63;9.75;;;;;;;;;;5034308;28;20036;-59
2021/03/02 10:34:16;;;;;;;15.25;9.18;;;;;;;;;;5033033;28;20052;-58
2021/03/02 10:37:14;;;;;;;11.98;8.18;;;;;;;;;;5017428;28;20033;-60
2021/03/02 10:39:43;;;;;;;13.65;9.40;;;;;;;;;;5034257;28;20049;-58
2021/03/02 10:42:20;;;;;;;12.35;9.60;;;;;;;;;;5033761;28;20032;-59
2021/03/02 10:45:03;;;;;;;12.68;8.55;;;;;;;;;;5034115;28;20034;-59
2021/03/02 10:47:54;;;;;;;9.23;8.23;;;;;;;;;;5034321;28;20057;-58
2021/03/02 10:50:29;;;;;;;10.20;9.18;;;;;;;;;;5031943;28;20045;-58
2021/03/02 10:53:13;;;;;;;9.98;8.27;;;;;;;;;;5033352;28;20422;-58
2021/03/02 10:55:45;;;;;;;12.80;9.02;;;;;;;;;;5015370;28;20030;-58
2021/03/02 10:58:18;;;;;;;11.68;9.23;;;;;;;;;;5033984;28;20056;-58
2021/03/02 11:00:50;;;;;;;9.82;8.80;;;;;;;;;;5037229;28;20038;-59
2021/03/02 11:03:25;;;;;;;11.40;8.68;;;;;;;;;;5037367;28;20468;-59
2021/03/02 11:05:52;;;;;;;11.30;8.73;;;;;;;;;;5020095;28;20045;-59
2021/03/02 11:08:27;;;;;;;11.85;8.23;;;;;;;;;;5019232;28;20037;-59
2021/03/02 11:11:03;;;;;;;12.20;9.35;;;;;;;;;;5037382;28;20025;-59
2021/03/02 11:13:44;;;;;;;9.70;8.05;;;;;;;;;;5037354;28;20025;-58
2021/03/02 11:16:30;;;;;;;12.00;8.32;;;;;;;;;;5037160;28;20060;-59
2021/03/02 11:19:04;;;;;;;10.07;8.32;;;;;;;;;;5020375;28;20022;-59
2021/03/02 11:22:00;;;;;;;9.25;7.38;;;;;;;;;;5019778;28;20085;-59
2021/03/02 11:24:35;;;;;;;9.95;7.30;;;;;;;;;;5019497;28;20120;-59
2021/03/02 11:27:07;;;;;;;10.48;7.63;;;;;;;;;;5018964;28;20729;-59
2021/03/02 11:29:40;;;;;;;11.48;8.55;;;;;;;;;;5037703;28;20033;-58
2021/03/02 11:32:13;;;;;;;11.00;8.13;;;;;;;;;;5035930;28;20176;-59
2021/03/02 11:34:40;;;;;;;12.05;7.78;;;;;;;;;;5019064;28;20021;-58
2021/03/02 11:37:07;;;;;;;9.23;7.25;;;;;;;;;;5018942;28;20058;-59
2021/03/02 11:39:39;;;;;;;10.27;8.38;;;;;;;;;;5035893;28;20070;-59
2021/03/02 11:42:08;;;;;;;14.52;9.32;;;;;;;;;;5019574;28;20030;-59
2021/03/02 11:44:35;;;;;;;15.40;10.25;;;;;;;;;;5018937;28;20082;-59
2021/03/02 11:47:13;;;;;;;11.98;7.82;;;;;;;;;;5037266;28;20025;-58
2021/03/02 11:49:47;;;;;;;11.93;8.30;;;;;;;;;;5036569;28;20028;-58
2021/03/02 11:52:13;;;;;;;10.02;7.40;;;;;;;;;;5019852;28;20040;-58
2021/03/02 11:54:51;;;;;;;15.10;8.70;;;;;;;;;;5036091;28;20033;-58
2021/03/02 11:57:26;;;;;;;9.10;7.38;;;;;;;;;;5037485;28;20025;-59
2021/03/02 11:59:52;;;;;;;12.57;7.30;;;;;;;;;;5036326;28;20041;-59
2021/03/02 12:02:27;;;;;;;14.75;8.52;;;;;;;;;;5036193;28;20029;-59
2021/03/02 12:04:58;;;;;;;10.60;7.85;;;;;;;;;;5018911;28;20069;-58
2021/03/02 12:07:30;;;;;;;12.85;8.35;;;;;;;;;;5036336;28;20507;-58
2021/03/02 12:10:00;;;;;;;10.18;8.25;;;;;;;;;;5036657;28;20144;-59
2021/03/02 12:12:36;;;;;;;10.75;9.30;;;;;;;;;;5018145;28;20471;-57
2021/03/02 12:15:08;;;;;;;11.32;8.40;;;;;;;;;;5034447;28;20045;-59
2021/03/02 12:17:41;;;;;;;9.25;8.07;;;;;;;;;;5035794;28;20056;-58
2021/03/02 12:20:08;;;;;;;10.55;6.95;;;;;;;;;;5036060;28;20132;-58
2021/03/02 12:22:42;;;;;;;11.43;8.02;;;;;;;;;;5018471;28;20052;-59
2021/03/02 12:28:04;;;;;;;10.40;7.35;;;;;;;;;;5035639;28;20087;-59
2021/03/02 12:30:35;;;;;;;8.70;7.20;;;;;;;;;;5035936;28;20379;-59
2021/03/02 12:33:07;;;;;;;9.93;7.28;;;;;;;;;;5036447;28;20061;-59
2021/03/02 12:35:51;;;;;;;10.07;8.32;;;;;;;;;;5036368;28;20033;-59
2021/03/02 12:38:26;;;;;;;10.00;7.25;;;;;;;;;;5034875;28;20045;-60
2021/03/02 12:40:55;;;;;;;9.38;7.28;;;;;;;;;;5036314;28;20403;-59
2021/03/02 12:43:24;;;;;;;11.95;6.68;;;;;;;;;;5017633;28;20515;-59
2021/03/02 12:45:50;;;;;;;11.30;7.97;;;;;;;;;;5017631;28;20026;-60
2021/03/02 12:48:18;;;;;;;12.85;8.15;;;;;;;;;;5035217;28;20021;-59
2021/03/02 12:50:48;;;;;;;12.77;8.65;;;;;;;;;;5017551;28;20029;-59
2021/03/02 12:53:14;;;;;;;13.13;7.47;;;;;;;;;;5035385;28;20463;-60
2021/03/02 12:55:41;;;;;;;8.88;6.78;;;;;;;;;;5035300;28;20029;-59
2021/03/02 12:58:16;;;;;;;13.07;7.10;;;;;;;;;;5035248;28;20025;-58
2021/03/02 13:00:45;;;;;;;9.68;7.30;;;;;;;;;;5035312;28;20448;-60
2021/03/02 13:03:18;;;;;;;10.30;7.78;;;;;;;;;;5035289;28;20383;-59
2021/03/02 13:05:47;;;;;;;12.23;8.10;;;;;;;;;;5017648;28;20068;-59
2021/03/02 13:08:24;;;;;;;11.70;8.50;;;;;;;;;;5017860;28;20037;-59
2021/03/02 13:10:57;;;;;;;13.20;7.75;;;;;;;;;;5017546;28;20040;-59
2021/03/02 13:13:28;;;;;;;10.18;7.55;;;;;;;;;;5017548;28;20467;-59
2021/03/02 13:16:03;;;;;;;11.18;8.25;;;;;;;;;;5017165;28;20029;-59
2021/03/02 13:18:32;;;;;;;11.48;6.85;;;;;;;;;;5016874;28;20035;-59
2021/03/02 13:21:02;;;;;;;13.80;7.70;;;;;;;;;;5034390;28;20060;-60
2021/03/02 13:23:32;;;;;;;7.77;5.77;;;;;;;;;;5034554;28;20028;-59
2021/03/02 13:26:03;;;;;;;11.00;7.60;;;;;;;;;;5034916;28;20295;-59
2021/03/02 13:28:36;;;;;;;10.57;7.70;;;;;;;;;;5035369;28;20057;-59
2021/03/02 13:31:12;;;;;;;9.88;7.05;;;;;;;;;;5017975;28;20029;-59
2021/03/02 13:33:40;;;;;;;11.65;7.00;;;;;;;;;;5002423;28;20349;-60
2021/03/02 13:36:20;;;;;;;8.95;7.10;;;;;;;;;;5000663;28;20029;-59
2021/03/02 13:38:51;;;;;;;10.18;8.38;;;;;;;;;;5034088;28;20065;-59
2021/03/02 13:41:21;;;;;;;;;;;;;;;;;;5035108;28;20037;-60
2021/03/02 13:43:48;;;;;;;11.40;7.18;;;;;;;;;;5034525;28;19935;-59
2021/03/02 13:46:20;;;;;;;9.57;8.07;;;;;;;;;;4999889;28;20033;-60
2021/03/02 13:48:49;;;;;;;11.98;8.43;;;;;;;;;;5034976;28;20141;-59
2021/03/02 13:51:22;;;;;;;11.70;8.45;;;;;;;;;;5034749;28;20112;-59
2021/03/02 13:53:54;;;;;;;15.25;8.13;;;;;;;;;;5033387;28;20029;-59
2021/03/02 13:56:26;;;;;;;11.75;8.15;;;;;;;;;;5033886;28;20022;-59
2021/03/02 13:58:54;;;;;;;10.32;6.95;;;;;;;;;;5016313;28;20041;-59
2021/03/02 14:01:22;;;;;;;12.00;7.95;;;;;;;;;;5032336;28;20096;-60
2021/03/02 14:03:55;;;;;;;15.27;7.75;;;;;;;;;;5016509;28;20072;-59
2021/03/02 14:06:21;;;;;;;12.15;8.20;;;;;;;;;;5033843;28;20025;-59
2021/03/02 14:08:51;;;;;;;14.23;7.68;;;;;;;;;;5033716;28;20361;-59
2021/03/02 14:11:18;;;;;;;12.23;7.53;;;;;;;;;;5034542;28;20036;-60
2021/03/02 14:13:47;;;;;;;11.02;8.45;;;;;;;;;;5033845;28;20025;-59
2021/03/02 14:16:13;;;;;;;12.15;7.90;;;;;;;;;;5015926;28;20044;-59
2021/03/02 14:18:40;;;;;;;16.40;8.57;;;;;;;;;;5016791;28;20026;-59
2021/03/02 14:21:06;;;;;;;12.98;9.80;;;;;;;;;;5033451;28;20059;-59
2021/03/02 14:23:43;;;;;;;13.43;9.57;;;;;;;;;;5017008;28;20033;-59
2021/03/02 14:26:10;;;;;;;19.20;10.57;;;;;;;;;;5033921;28;20029;-59
2021/03/02 14:28:36;;;;;;;11.82;8.48;;;;;;;;;;4999960;28;20495;-59
2021/03/02 14:31:06;;;;;;;11.20;8.52;;;;;;;;;;5016607;28;20040;-59
2021/03/02 14:33:37;;;;;;;13.65;8.68;;;;;;;;;;5016639;28;20058;-60
2021/03/02 14:36:04;;;;;;;14.27;7.93;;;;;;;;;;5032906;28;20061;-59
2021/03/02 14:38:37;;;;;;;14.25;9.35;;;;;;;;;;5033252;28;20144;-60
2021/03/02 14:41:07;;;;;;;12.55;7.95;;;;;;;;;;5030198;28;20037;-59
2021/03/02 14:43:36;;;;;;;13.65;8.50;;;;;;;;;;5015515;28;20033;-60
2021/03/02 14:46:03;;;;;;;9.55;7.68;;;;;;;;;;5015899;28;20029;-59
2021/03/02 14:48:34;;;;;;;13.02;9.05;;;;;;;;;;5015494;28;20044;-59
2021/03/02 14:51:03;;;;;;;13.35;8.88;;;;;;;;;;5033546;28;20026;-59
2021/03/02 14:53:32;;;;;;;12.50;8.43;;;;;;;;;;5033373;28;20029;-59
2021/03/02 14:56:02;;;;;;;15.88;7.97;;;;;;;;;;5015793;28;20033;-59
2021/03/02 14:58:38;;;;;;;14.80;8.70;;;;;;;;;;5033812;28;20049;-59
2021/03/02 15:01:14;;;;;;;11.13;8.63;;;;;;;;;;5016046;28;20037;-60
2021/03/02 15:03:45;;;;;;;13.23;8.68;;;;;;;;;;5015112;28;20029;-59
2021/03/02 15:06:23;;;;;;;12.35;8.93;;;;;;;;;;5016875;28;20032;-59
2021/03/02 15:08:56;;;;;;;9.90;7.40;;;;;;;;;;5033278;28;20096;-59
2021/03/02 15:11:23;;;;;;;11.38;7.30;;;;;;;;;;5016880;28;20091;-60
2021/03/02 15:13:49;;;;;;;10.55;7.10;;;;;;;;;;5033010;28;20021;-59
2021/03/02 15:16:18;;;;;;;17.13;8.63;;;;;;;;;;5033257;28;20036;-60
2021/03/02 15:18:49;;;;;;;11.90;8.65;;;;;;;;;;5033313;28;20021;-59
2021/03/02 15:21:17;;;;;;;11.25;8.20;;;;;;;;;;5015208;28;20026;-60
2021/03/02 15:23:44;;;;;;;11.02;7.10;;;;;;;;;;5015432;28;20025;-59
2021/03/02 15:26:12;;;;;;;12.95;8.35;;;;;;;;;;5015188;28;20053;-59
2021/03/02 15:28:42;;;;;;;11.40;7.20;;;;;;;;;;5015836;28;20022;-59
2021/03/02 15:31:08;;;;;;;10.90;6.68;;;;;;;;;;5015833;28;20025;-59
2021/03/02 15:33:35;;;;;;;16.30;9.35;;;;;;;;;;5014914;28;20033;-60
2021/03/02 15:36:06;;;;;;;11.65;8.02;;;;;;;;;;5014969;28;20123;-59
2021/03/02 15:38:36;;;;;;;10.18;6.72;;;;;;;;;;5015214;28;20409;-59
2021/03/02 15:41:07;;;;;;;12.65;7.65;;;;;;;;;;5015289;28;20068;-60
2021/03/02 15:43:36;;;;;;;13.90;6.95;;;;;;;;;;5033158;28;20029;-59
2021/03/02 15:46:05;;;;;;;13.00;8.15;;;;;;;;;;5034985;28;20383;-59
2021/03/02 15:48:34;;;;;;;10.85;7.43;;;;;;;;;;5036632;28;20424;-59
2021/03/02 15:51:01;;;;;;;12.77;8.35;;;;;;;;;;5036415;28;20483;-59
2021/03/02 15:53:32;;;;;;;11.85;7.82;;;;;;;;;;5018789;28;20108;-60
2021/03/02 15:55:58;;;;;;;13.05;8.27;;;;;;;;;;5036418;28;20025;-59
2021/03/02 15:58:28;;;;;;;11.52;8.20;;;;;;;;;;5036248;28;20057;-59
2021/03/02 16:00:57;;;;;;;11.88;7.72;;;;;;;;;;5035922;28;20032;-59
2021/03/02 16:03:32;;;;;;;12.80;7.63;;;;;;;;;;5018842;28;20033;-58
2021/03/02 16:06:06;;;;;;;19.58;7.63;;;;;;;;;;5019407;28;20021;-59
2021/03/02 16:08:41;;;;;;;11.80;7.93;;;;;;;;;;5036305;28;20033;-60
2021/03/02 16:11:11;;;;;;;9.85;6.28;;;;;;;;;;5018608;28;20471;-59
2021/03/02 16:13:38;;;;;;;9.98;6.68;;;;;;;;;;5019062;28;20025;-59
2021/03/02 16:16:08;;;;;;;12.23;6.88;;;;;;;;;;5017981;28;20026;-60
2021/03/02 16:18:36;;;;;;;13.45;7.70;;;;;;;;;;5035574;28;20080;-59
2021/03/02 16:21:12;;;;;;;12.48;7.38;;;;;;;;;;5036113;28;20104;-59
2021/03/02 16:23:42;;;;;;;13.32;7.68;;;;;;;;;;5036553;28;20047;-59
2021/03/02 16:26:11;;;;;;;9.48;6.45;;;;;;;;;;5035863;28;20029;-59
2021/03/02 16:28:38;;;;;;;9.43;6.22;;;;;;;;;;5035818;28;20104;-59
2021/03/02 16:31:12;;;;;;;10.35;6.90;;;;;;;;;;5035296;28;20045;-59
2021/03/02 16:33:47;;;;;;;10.38;7.07;;;;;;;;;;5035646;28;20037;-59
2021/03/02 16:36:17;;;;;;;9.57;7.15;;;;;;;;;;5035650;28;20365;-59
2021/03/02 16:38:43;;;;;;;10.60;6.35;;;;;;;;;;5035079;28;20053;-59
2021/03/02 16:41:11;;;;;;;7.53;6.05;;;;;;;;;;5017568;28;20091;-59
2021/03/02 16:43:41;;;;;;;15.25;7.35;;;;;;;;;;5018126;28;20064;-59
2021/03/02 16:46:07;;;;;;;9.13;5.93;;;;;;;;;;5035347;28;20475;-59
2021/03/02 16:48:39;;;;;;;11.77;7.22;;;;;;;;;;5035667;28;20029;-59
2021/03/02 16:51:11;;;;;;;11.95;6.78;;;;;;;;;;5017775;28;20030;-59
2021/03/02 16:53:40;;;;;;;7.65;6.03;;;;;;;;;;5035899;28;20053;-59
2021/03/02 16:56:09;;;;;;;11.32;6.93;;;;;;;;;;5017709;28;20026;-59
2021/03/02 16:58:49;;;;;;;11.05;7.47;;;;;;;;;;5034891;28;20045;-59